PIC8596 VVTS-VVDN
Flight info
| Callsign | PIC8596 |
|---|---|
| Flight time | 0h 56m |
| Altitude | 33000 |
| Route | PATMA5M PATMA Q2 SADAS/K0843F290 Q7 MUMGA Q1 SADIN SADIN1D |
| Aircraft | B734/M-SDE2E3FHIRW/S |
Departure
| Time | 2026-04-21 13:19 |
|---|---|
| Airport | Tan Son Nhat International Airport (VVTS) |
Arrival
| Time | 2026-04-21 14:16 |
|---|---|
| Airport | Da Nang International Airport (VVDN) |
| Time | Latitude | Longitude | Altitude | Speed | Heading |
|---|---|---|---|---|---|
| 2026-04-21 12:51 | 10.81179 | 106.66141 | 37 ft | 0 kts | 6° |
| 2026-04-21 13:07 | 10.81173 | 106.66141 | 37 ft | 4 kts | 41° |
| 2026-04-21 13:07 | 10.81163 | 106.66140 | 37 ft | 4 kts | 13° |
| 2026-04-21 13:07 | 10.81144 | 106.66127 | 37 ft | 4 kts | 69° |
| 2026-04-21 13:08 | 10.81142 | 106.66102 | 36 ft | 4 kts | 95° |
| 2026-04-21 13:08 | 10.81144 | 106.66075 | 37 ft | 4 kts | 95° |
| 2026-04-21 13:08 | 10.81147 | 106.66048 | 37 ft | 4 kts | 95° |
| 2026-04-21 13:08 | 10.81147 | 106.66023 | 37 ft | 4 kts | 70° |
| 2026-04-21 13:09 | 10.81131 | 106.66005 | 37 ft | 4 kts | 18° |
| 2026-04-21 13:09 | 10.81129 | 106.66004 | 37 ft | 4 kts | 5° |
| 2026-04-21 13:09 | 10.81155 | 106.66006 | 36 ft | 4 kts | 5° |
| 2026-04-21 13:09 | 10.81182 | 106.66009 | 37 ft | 4 kts | 5° |
| 2026-04-21 13:10 | 10.81189 | 106.66009 | 37 ft | 3 kts | 5° |
| 2026-04-21 13:12 | 10.81197 | 106.66010 | 37 ft | 5 kts | 5° |
| 2026-04-21 13:12 | 10.81250 | 106.66015 | 37 ft | 10 kts | 5° |
| 2026-04-21 13:12 | 10.81327 | 106.66022 | 36 ft | 11 kts | 5° |
| 2026-04-21 13:13 | 10.81400 | 106.66029 | 37 ft | 10 kts | 5° |
| 2026-04-21 13:13 | 10.81468 | 106.66036 | 37 ft | 11 kts | 5° |
| 2026-04-21 13:13 | 10.81549 | 106.66043 | 37 ft | 12 kts | 5° |
| 2026-04-21 13:13 | 10.81638 | 106.66052 | 37 ft | 13 kts | 5° |
| 2026-04-21 13:14 | 10.81732 | 106.66060 | 37 ft | 14 kts | 5° |
| 2026-04-21 13:14 | 10.81831 | 106.66071 | 35 ft | 15 kts | 15° |
| 2026-04-21 13:14 | 10.81890 | 106.66148 | 36 ft | 14 kts | 67° |
| 2026-04-21 13:14 | 10.81924 | 106.66238 | 37 ft | 12 kts | 69° |
| 2026-04-21 13:15 | 10.81951 | 106.66312 | 35 ft | 11 kts | 69° |
| 2026-04-21 13:15 | 10.81981 | 106.66390 | 36 ft | 13 kts | 69° |
| 2026-04-21 13:15 | 10.82015 | 106.66479 | 34 ft | 14 kts | 69° |
| 2026-04-21 13:15 | 10.82050 | 106.66573 | 33 ft | 14 kts | 69° |
| 2026-04-21 13:16 | 10.82084 | 106.66664 | 32 ft | 14 kts | 69° |
| 2026-04-21 13:16 | 10.82119 | 106.66755 | 32 ft | 14 kts | 69° |
| 2026-04-21 13:16 | 10.82155 | 106.66849 | 30 ft | 14 kts | 69° |
| 2026-04-21 13:16 | 10.82189 | 106.66942 | 34 ft | 13 kts | 69° |
| 2026-04-21 13:17 | 10.82219 | 106.67005 | 34 ft | 8 kts | 43° |
| 2026-04-21 13:17 | 10.82263 | 106.67006 | 35 ft | 3 kts | 340° |
| 2026-04-21 13:17 | 10.82303 | 106.66991 | 35 ft | 9 kts | 334° |
| 2026-04-21 13:17 | 10.82335 | 106.66927 | 34 ft | 12 kts | 280° |
| 2026-04-21 13:18 | 10.82335 | 106.66856 | 33 ft | 7 kts | 248° |
| 2026-04-21 13:18 | 10.82333 | 106.66851 | 32 ft | 0 kts | 249° |
| 2026-04-21 13:18 | 10.82332 | 106.66849 | 32 ft | 3 kts | 249° |
| 2026-04-21 13:18 | 10.82290 | 106.66741 | 31 ft | 44 kts | 249° |
| 2026-04-21 13:19 | 10.82095 | 106.66225 | 36 ft | 113 kts | 249° |
| 2026-04-21 13:19 | 10.81741 | 106.65261 | 51 ft | 175 kts | 249° |
| 2026-04-21 13:19 | 10.81326 | 106.64014 | 641 ft | 190 kts | 248° |
| 2026-04-21 13:19 | 10.80912 | 106.62713 | 1474 ft | 198 kts | 249° |
| 2026-04-21 13:20 | 10.80482 | 106.61288 | 2002 ft | 224 kts | 250° |
| 2026-04-21 13:20 | 10.79999 | 106.59718 | 2727 ft | 243 kts | 249° |
| 2026-04-21 13:20 | 10.79495 | 106.58051 | 3716 ft | 248 kts | 258° |
| 2026-04-21 13:20 | 10.79544 | 106.56284 | 4716 ft | 255 kts | 288° |
| 2026-04-21 13:21 | 10.80410 | 106.54721 | 5599 ft | 266 kts | 315° |
| 2026-04-21 13:21 | 10.81969 | 106.53671 | 6447 ft | 274 kts | 344° |
| 2026-04-21 13:21 | 10.83849 | 106.53445 | 7478 ft | 274 kts | 5° |
| 2026-04-21 13:21 | 10.85759 | 106.53675 | 8445 ft | 281 kts | 13° |
| 2026-04-21 13:22 | 10.87688 | 106.54182 | 9290 ft | 292 kts | 21° |
| 2026-04-21 13:22 | 10.89593 | 106.54921 | 10142 ft | 294 kts | 22° |
| 2026-04-21 13:22 | 10.91548 | 106.55646 | 10749 ft | 307 kts | 22° |
| 2026-04-21 13:22 | 10.93618 | 106.56407 | 11231 ft | 322 kts | 20° |
| 2026-04-21 13:23 | 10.95749 | 106.57159 | 12054 ft | 325 kts | 19° |
| 2026-04-21 13:23 | 10.97881 | 106.57967 | 12853 ft | 330 kts | 25° |
| 2026-04-21 13:23 | 10.99831 | 106.59242 | 13551 ft | 338 kts | 41° |
| 2026-04-21 13:23 | 11.01375 | 106.61050 | 14359 ft | 338 kts | 53° |
| 2026-04-21 13:24 | 11.02751 | 106.63003 | 15113 ft | 342 kts | 53° |
| 2026-04-21 13:24 | 11.04172 | 106.64939 | 15750 ft | 349 kts | 52° |
| 2026-04-21 13:24 | 11.05668 | 106.66896 | 16574 ft | 350 kts | 52° |
| 2026-04-21 13:24 | 11.07188 | 106.68856 | 17313 ft | 356 kts | 52° |
| 2026-04-21 13:25 | 11.08734 | 106.70854 | 17989 ft | 363 kts | 52° |
| 2026-04-21 13:25 | 11.10451 | 106.72754 | 18651 ft | 366 kts | 42° |
| 2026-04-21 13:25 | 11.12421 | 106.74400 | 19411 ft | 366 kts | 38° |
| 2026-04-21 13:25 | 11.14429 | 106.75996 | 20126 ft | 367 kts | 39° |
| 2026-04-21 13:26 | 11.16409 | 106.77649 | 20757 ft | 371 kts | 41° |
| 2026-04-21 13:26 | 11.18379 | 106.79379 | 21298 ft | 376 kts | 41° |
| 2026-04-21 13:26 | 11.20345 | 106.81139 | 21988 ft | 377 kts | 41° |
| 2026-04-21 13:26 | 11.22333 | 106.82906 | 22610 ft | 381 kts | 41° |
| 2026-04-21 13:27 | 11.24345 | 106.84678 | 23163 ft | 385 kts | 41° |
| 2026-04-21 13:27 | 11.26377 | 106.86463 | 23753 ft | 386 kts | 41° |
| 2026-04-21 13:27 | 11.28420 | 106.88259 | 24270 ft | 389 kts | 41° |
| 2026-04-21 13:27 | 11.30473 | 106.90067 | 24749 ft | 392 kts | 41° |
| 2026-04-21 13:28 | 11.32541 | 106.91889 | 25255 ft | 394 kts | 41° |
| 2026-04-21 13:28 | 11.34619 | 106.93721 | 25753 ft | 396 kts | 41° |
| 2026-04-21 13:28 | 11.36710 | 106.95564 | 26252 ft | 398 kts | 41° |
| 2026-04-21 13:28 | 11.38804 | 106.97409 | 26831 ft | 398 kts | 41° |
| 2026-04-21 13:29 | 11.40902 | 106.99258 | 27341 ft | 399 kts | 41° |
| 2026-04-21 13:29 | 11.43013 | 107.01118 | 27760 ft | 404 kts | 40° |
| 2026-04-21 13:29 | 11.45113 | 107.02969 | 28228 ft | 406 kts | 40° |
| 2026-04-21 13:29 | 11.47258 | 107.04860 | 28607 ft | 411 kts | 40° |
| 2026-04-21 13:30 | 11.49464 | 107.06805 | 28616 ft | 425 kts | 40° |
| 2026-04-21 13:30 | 11.51715 | 107.08789 | 29052 ft | 428 kts | 40° |
| 2026-04-21 13:30 | 11.53960 | 107.10775 | 29632 ft | 427 kts | 40° |
| 2026-04-21 13:30 | 11.56217 | 107.12770 | 30025 ft | 431 kts | 40° |
| 2026-04-21 13:31 | 11.58495 | 107.14774 | 30340 ft | 435 kts | 40° |
| 2026-04-21 13:31 | 11.60792 | 107.16794 | 30538 ft | 434 kts | 40° |
| 2026-04-21 13:31 | 11.63074 | 107.18804 | 30759 ft | 436 kts | 40° |
| 2026-04-21 13:31 | 11.65357 | 107.20818 | 30871 ft | 444 kts | 40° |
| 2026-04-21 13:32 | 11.70086 | 107.24991 | 30872 ft | 450 kts | 40° |
| 2026-04-21 13:32 | 11.74782 | 107.29136 | 30872 ft | 446 kts | 40° |
| 2026-04-21 13:33 | 11.79467 | 107.33272 | 30888 ft | 445 kts | 40° |
| 2026-04-21 13:33 | 11.84167 | 107.37419 | 30891 ft | 447 kts | 40° |
| 2026-04-21 13:34 | 11.88874 | 107.41574 | 30892 ft | 447 kts | 40° |
| 2026-04-21 13:34 | 11.93577 | 107.45726 | 30894 ft | 447 kts | 40° |
| 2026-04-21 13:35 | 11.98276 | 107.49875 | 30900 ft | 446 kts | 40° |
| 2026-04-21 13:35 | 12.02966 | 107.54017 | 30903 ft | 446 kts | 40° |
| 2026-04-21 13:36 | 12.07663 | 107.58168 | 30904 ft | 447 kts | 40° |
| 2026-04-21 13:36 | 12.12329 | 107.62292 | 30908 ft | 447 kts | 40° |
| 2026-04-21 13:37 | 12.17036 | 107.66452 | 30904 ft | 447 kts | 40° |
| 2026-04-21 13:37 | 12.21731 | 107.70602 | 30903 ft | 447 kts | 40° |
| 2026-04-21 13:38 | 12.26437 | 107.74764 | 30898 ft | 447 kts | 40° |
| 2026-04-21 13:38 | 12.31179 | 107.78892 | 30899 ft | 447 kts | 37° |
| 2026-04-21 13:39 | 12.33781 | 107.80614 | 30877 ft | 446 kts | 25° |
| 2026-04-21 13:39 | 12.36713 | 107.81621 | 30881 ft | 445 kts | 9° |
| 2026-04-21 13:39 | 12.39798 | 107.81807 | 30906 ft | 447 kts | 358° |
| 2026-04-21 13:39 | 12.42914 | 107.81541 | 30895 ft | 449 kts | 356° |
| 2026-04-21 13:40 | 12.49152 | 107.81349 | 30878 ft | 448 kts | 2° |
| 2026-04-21 13:40 | 12.55364 | 107.81577 | 30875 ft | 447 kts | 2° |
| 2026-04-21 13:41 | 12.61596 | 107.81738 | 30862 ft | 448 kts | 1° |
| 2026-04-21 13:41 | 12.67838 | 107.81839 | 30864 ft | 448 kts | 1° |
| 2026-04-21 13:42 | 12.73022 | 107.81933 | 30865 ft | 448 kts | 2° |
| 2026-04-21 13:42 | 12.79253 | 107.82057 | 30860 ft | 448 kts | 2° |
| 2026-04-21 13:43 | 12.85483 | 107.82178 | 30862 ft | 447 kts | 1° |
| 2026-04-21 13:43 | 12.91698 | 107.82296 | 30858 ft | 447 kts | 1° |
| 2026-04-21 13:44 | 12.97922 | 107.82418 | 30857 ft | 448 kts | 1° |
| 2026-04-21 13:44 | 13.04151 | 107.82537 | 30857 ft | 448 kts | 1° |
| 2026-04-21 13:45 | 13.10387 | 107.82658 | 30853 ft | 448 kts | 1° |
| 2026-04-21 13:45 | 13.16603 | 107.82778 | 30848 ft | 448 kts | 1° |
| 2026-04-21 13:46 | 13.22841 | 107.82898 | 30852 ft | 447 kts | 1° |
| 2026-04-21 13:46 | 13.29045 | 107.83018 | 30854 ft | 446 kts | 1° |
| 2026-04-21 13:47 | 13.35246 | 107.83142 | 30850 ft | 447 kts | 2° |
| 2026-04-21 13:47 | 13.41419 | 107.83271 | 30856 ft | 448 kts | 2° |
| 2026-04-21 13:48 | 13.47658 | 107.83402 | 30860 ft | 447 kts | 2° |
| 2026-04-21 13:48 | 13.53885 | 107.83529 | 30866 ft | 447 kts | 2° |
| 2026-04-21 13:49 | 13.60107 | 107.83658 | 30868 ft | 446 kts | 2° |
| 2026-04-21 13:49 | 13.66307 | 107.83790 | 30872 ft | 445 kts | 2° |
| 2026-04-21 13:50 | 13.72509 | 107.83919 | 30884 ft | 446 kts | 1° |
| 2026-04-21 13:50 | 13.78709 | 107.84048 | 30886 ft | 446 kts | 1° |
| 2026-04-21 13:51 | 13.84926 | 107.84178 | 30888 ft | 446 kts | 1° |
| 2026-04-21 13:51 | 13.91117 | 107.84307 | 30891 ft | 446 kts | 1° |
| 2026-04-21 13:52 | 13.97323 | 107.84433 | 30897 ft | 446 kts | 1° |
| 2026-04-21 13:52 | 14.03526 | 107.84498 | 30895 ft | 446 kts | 0° |
| 2026-04-21 13:53 | 14.09737 | 107.84485 | 30892 ft | 446 kts | 0° |
| 2026-04-21 13:53 | 14.15938 | 107.84476 | 30904 ft | 445 kts | 0° |
| 2026-04-21 13:54 | 14.22135 | 107.84480 | 30901 ft | 445 kts | 0° |
| 2026-04-21 13:54 | 14.28336 | 107.84478 | 30909 ft | 445 kts | 0° |
| 2026-04-21 13:55 | 14.34488 | 107.84480 | 30904 ft | 445 kts | 0° |
| 2026-04-21 13:55 | 14.40677 | 107.84482 | 30905 ft | 445 kts | 0° |
| 2026-04-21 13:56 | 14.46868 | 107.84488 | 30906 ft | 445 kts | 0° |
| 2026-04-21 13:56 | 14.53062 | 107.84484 | 30911 ft | 445 kts | 0° |
| 2026-04-21 13:57 | 14.59260 | 107.84483 | 30872 ft | 443 kts | 0° |
| 2026-04-21 13:57 | 14.62297 | 107.84484 | 30627 ft | 429 kts | 0° |
| 2026-04-21 13:57 | 14.65231 | 107.84484 | 30291 ft | 416 kts | 0° |
| 2026-04-21 13:58 | 14.68093 | 107.84484 | 29779 ft | 408 kts | 0° |
| 2026-04-21 13:58 | 14.70935 | 107.84484 | 28952 ft | 407 kts | 0° |
| 2026-04-21 13:58 | 14.73761 | 107.84485 | 28163 ft | 406 kts | 0° |
| 2026-04-21 13:58 | 14.76587 | 107.84485 | 27428 ft | 404 kts | 0° |
| 2026-04-21 13:59 | 14.79386 | 107.84487 | 26747 ft | 401 kts | 0° |
| 2026-04-21 13:59 | 14.82155 | 107.84487 | 26079 ft | 398 kts | 0° |
| 2026-04-21 13:59 | 14.84921 | 107.84500 | 25437 ft | 395 kts | 2° |
| 2026-04-21 13:59 | 14.87648 | 107.84747 | 24785 ft | 392 kts | 11° |
| 2026-04-21 14:00 | 14.90276 | 107.85462 | 24148 ft | 390 kts | 19° |
| 2026-04-21 14:00 | 14.92802 | 107.86449 | 23523 ft | 388 kts | 21° |
| 2026-04-21 14:00 | 14.95269 | 107.87475 | 22784 ft | 386 kts | 21° |
| 2026-04-21 14:00 | 14.97769 | 107.88456 | 22074 ft | 383 kts | 19° |
| 2026-04-21 14:01 | 15.00270 | 107.89378 | 21401 ft | 380 kts | 19° |
| 2026-04-21 14:01 | 15.02766 | 107.90278 | 20754 ft | 377 kts | 18° |
| 2026-04-21 14:01 | 15.05231 | 107.91169 | 20141 ft | 374 kts | 19° |
| 2026-04-21 14:01 | 15.07674 | 107.92063 | 19520 ft | 371 kts | 19° |
| 2026-04-21 14:02 | 15.10095 | 107.92954 | 18934 ft | 368 kts | 19° |
| 2026-04-21 14:02 | 15.12505 | 107.93830 | 18346 ft | 365 kts | 19° |
| 2026-04-21 14:02 | 15.14889 | 107.94708 | 17710 ft | 363 kts | 19° |
| 2026-04-21 14:03 | 15.19620 | 107.96447 | 16423 ft | 358 kts | 19° |
| 2026-04-21 14:03 | 15.21954 | 107.97303 | 15811 ft | 355 kts | 18° |
| 2026-04-21 14:03 | 15.24268 | 107.98157 | 15213 ft | 352 kts | 19° |
| 2026-04-21 14:03 | 15.26569 | 107.99006 | 14627 ft | 349 kts | 19° |
| 2026-04-21 14:04 | 15.28839 | 107.99852 | 14063 ft | 347 kts | 19° |
| 2026-04-21 14:04 | 15.31105 | 108.00705 | 13565 ft | 341 kts | 19° |
| 2026-04-21 14:04 | 15.33277 | 108.01526 | 13388 ft | 325 kts | 19° |
| 2026-04-21 14:04 | 15.35373 | 108.02320 | 13011 ft | 317 kts | 19° |
| 2026-04-21 14:05 | 15.37419 | 108.03091 | 12651 ft | 310 kts | 19° |
| 2026-04-21 14:05 | 15.39443 | 108.03848 | 12197 ft | 307 kts | 19° |
| 2026-04-21 14:05 | 15.41437 | 108.04637 | 11730 ft | 305 kts | 22° |
| 2026-04-21 14:05 | 15.43362 | 108.05527 | 11287 ft | 303 kts | 25° |
| 2026-04-21 14:06 | 15.45251 | 108.06494 | 10818 ft | 301 kts | 26° |
| 2026-04-21 14:06 | 15.47115 | 108.07478 | 10376 ft | 300 kts | 26° |
| 2026-04-21 14:06 | 15.48974 | 108.08443 | 9952 ft | 298 kts | 26° |
| 2026-04-21 14:06 | 15.50824 | 108.09395 | 9535 ft | 295 kts | 26° |
| 2026-04-21 14:07 | 15.52655 | 108.10340 | 9262 ft | 296 kts | 26° |
| 2026-04-21 14:07 | 15.54516 | 108.11299 | 8956 ft | 300 kts | 26° |
| 2026-04-21 14:07 | 15.56380 | 108.12260 | 8591 ft | 298 kts | 26° |
| 2026-04-21 14:07 | 15.58228 | 108.13212 | 8202 ft | 294 kts | 26° |
| 2026-04-21 14:08 | 15.60050 | 108.14151 | 7862 ft | 290 kts | 26° |
| 2026-04-21 14:08 | 15.61861 | 108.15085 | 7598 ft | 292 kts | 26° |
| 2026-04-21 14:08 | 15.63659 | 108.16013 | 7340 ft | 292 kts | 26° |
| 2026-04-21 14:08 | 15.65472 | 108.16952 | 7081 ft | 290 kts | 27° |
| 2026-04-21 14:09 | 15.67277 | 108.17887 | 6814 ft | 289 kts | 27° |
| 2026-04-21 14:09 | 15.69073 | 108.18819 | 6534 ft | 288 kts | 27° |
| 2026-04-21 14:09 | 15.70868 | 108.19750 | 6236 ft | 287 kts | 27° |
| 2026-04-21 14:09 | 15.72654 | 108.20676 | 5918 ft | 286 kts | 27° |
| 2026-04-21 14:10 | 15.74430 | 108.21597 | 5604 ft | 285 kts | 27° |
| 2026-04-21 14:10 | 15.76203 | 108.22517 | 5220 ft | 285 kts | 27° |
| 2026-04-21 14:10 | 15.77997 | 108.23377 | 4793 ft | 283 kts | 19° |
| 2026-04-21 14:10 | 15.79929 | 108.23702 | 4365 ft | 281 kts | 356° |
| 2026-04-21 14:11 | 15.81813 | 108.23297 | 4042 ft | 274 kts | 342° |
| 2026-04-21 14:11 | 15.83623 | 108.22784 | 3689 ft | 268 kts | 348° |
| 2026-04-21 14:11 | 15.85438 | 108.22512 | 3346 ft | 255 kts | 354° |
| 2026-04-21 14:11 | 15.87134 | 108.22347 | 3068 ft | 235 kts | 353° |
| 2026-04-21 14:12 | 15.88682 | 108.22139 | 2749 ft | 220 kts | 350° |
| 2026-04-21 14:12 | 15.90134 | 108.21902 | 2507 ft | 201 kts | 350° |
| 2026-04-21 14:12 | 15.91444 | 108.21708 | 2245 ft | 183 kts | 352° |
| 2026-04-21 14:12 | 15.92653 | 108.21544 | 1996 ft | 168 kts | 352° |
| 2026-04-21 14:13 | 15.93752 | 108.21389 | 1829 ft | 149 kts | 351° |
| 2026-04-21 14:13 | 15.94778 | 108.21234 | 1701 ft | 152 kts | 351° |
| 2026-04-21 14:13 | 15.95795 | 108.21085 | 1455 ft | 145 kts | 352° |
| 2026-04-21 14:13 | 15.96781 | 108.20947 | 1275 ft | 143 kts | 352° |
| 2026-04-21 14:14 | 15.97762 | 108.20801 | 1104 ft | 144 kts | 352° |
| 2026-04-21 14:14 | 15.98742 | 108.20658 | 918 ft | 142 kts | 352° |
| 2026-04-21 14:14 | 15.99735 | 108.20517 | 729 ft | 144 kts | 352° |
| 2026-04-21 14:14 | 16.00721 | 108.20368 | 488 ft | 144 kts | 353° |
| 2026-04-21 14:15 | 16.01719 | 108.20218 | 307 ft | 143 kts | 352° |
| 2026-04-21 14:15 | 16.02690 | 108.20079 | 137 ft | 141 kts | 354° |
| 2026-04-21 14:15 | 16.03653 | 108.19943 | 34 ft | 131 kts | 353° |
| 2026-04-21 14:15 | 16.04334 | 108.19840 | 34 ft | 51 kts | 351° |
| 2026-04-21 14:16 | 16.04602 | 108.19804 | 34 ft | 35 kts | 353° |
| 2026-04-21 14:16 | 16.04807 | 108.19777 | 35 ft | 21 kts | 352° |
| 2026-04-21 14:16 | 16.04881 | 108.19820 | 35 ft | 11 kts | 80° |
| 2026-04-21 14:16 | 16.04889 | 108.19876 | 34 ft | 8 kts | 82° |
| 2026-04-21 14:17 | 16.04899 | 108.19946 | 34 ft | 10 kts | 82° |
| 2026-04-21 14:17 | 16.04909 | 108.20018 | 32 ft | 10 kts | 82° |
| 2026-04-21 14:17 | 16.04916 | 108.20069 | 32 ft | 7 kts | 76° |
| 2026-04-21 14:17 | 16.04948 | 108.20099 | 32 ft | 6 kts | 4° |
| 2026-04-21 14:18 | 16.04990 | 108.20094 | 32 ft | 6 kts | 352° |
| 2026-04-21 14:18 | 16.05036 | 108.20087 | 32 ft | 7 kts | 353° |
| 2026-04-21 14:18 | 16.05083 | 108.20081 | 33 ft | 7 kts | 351° |
| 2026-04-21 14:18 | 16.05131 | 108.20073 | 33 ft | 7 kts | 352° |
| 2026-04-21 14:19 | 16.05180 | 108.20066 | 33 ft | 7 kts | 352° |
| 2026-04-21 14:19 | 16.05244 | 108.20057 | 33 ft | 11 kts | 352° |
| 2026-04-21 14:19 | 16.05296 | 108.20050 | 33 ft | 2 kts | 352° |
| 2026-04-21 14:19 | 16.05307 | 108.20048 | 33 ft | 0 kts | 352° |
| 2026-04-21 14:20 | 16.05311 | 108.20047 | 33 ft | 3 kts | 352° |
| 2026-04-21 14:20 | 16.05344 | 108.20043 | 33 ft | 6 kts | 352° |
| 2026-04-21 14:21 | 16.05388 | 108.20036 | 33 ft | 7 kts | 352° |
| 2026-04-21 14:21 | 16.05437 | 108.20029 | 33 ft | 7 kts | 352° |
| 2026-04-21 14:21 | 16.05487 | 108.20022 | 31 ft | 7 kts | 352° |
| 2026-04-21 14:21 | 16.05539 | 108.20014 | 32 ft | 7 kts | 352° |
| 2026-04-21 14:22 | 16.05590 | 108.20007 | 33 ft | 8 kts | 352° |
| 2026-04-21 14:22 | 16.05643 | 108.20000 | 33 ft | 7 kts | 355° |
| 2026-04-21 14:22 | 16.05675 | 108.20019 | 33 ft | 5 kts | 69° |
| 2026-04-21 14:22 | 16.05684 | 108.20069 | 33 ft | 8 kts | 82° |
| 2026-04-21 14:23 | 16.05690 | 108.20119 | 33 ft | 4 kts | 82° |
| 2026-04-21 14:23 | 16.05692 | 108.20131 | 33 ft | 0 kts | 82° |
| 2026-04-21 14:23 | 16.05693 | 108.20137 | 33 ft | 0 kts | 81° |